Time;durP1;ratioP1;P1;durP2;ratioP2;P2;SDS_P1;SDS_P2;PMS_P1;PMS_P2;Temp;Humidity;BMP_temperature;BMP_pressure;BME280_temperature;BME280_humidity;BME280_pressure;Samples;Min_cycle;Max_cycle;Signal;HPM_P1;HPM_P2
2022/03/09 00:00:23;;;;;;;15.20;11.37;;;;;;;-0.34;55.45;99124.03;4143084;28;20580;-49
2022/03/09 00:02:25;;;;;;;13.37;11.23;;;;;;;-0.38;55.31;99128.06;4122713;28;20919;-49
2022/03/09 00:04:27;;;;;;;12.10;11.07;;;;;;;-0.44;55.46;99126.03;4125845;28;20296;-51
2022/03/09 00:06:29;;;;;;;11.83;10.63;;;;;;;-0.46;55.83;99128.06;4140598;28;20200;-52
2022/03/09 00:08:31;;;;;;;13.17;11.83;;;;;;;-0.53;55.63;99132.41;4124795;28;20238;-51
2022/03/09 00:10:32;;;;;;;14.20;12.87;;;;;;;-0.58;55.59;99126.69;4141257;28;20210;-50
2022/03/09 00:12:34;;;;;;;17.80;13.60;;;;;;;-0.60;55.69;99139.44;4122056;28;20265;-49
2022/03/09 00:14:36;;;;;;;16.40;14.83;;;;;;;-0.59;55.77;99128.56;4125314;28;20320;-48
2022/03/09 00:16:38;;;;;;;17.07;12.70;;;;;;;-0.57;56.03;99139.09;4154749;28;20260;-49
2022/03/09 00:18:43;;;;;;;13.90;12.60;;;;;;;-0.58;55.81;99137.44;4122837;28;20234;-49
2022/03/09 00:20:45;;;;;;;14.43;13.23;;;;;;;-0.62;56.06;99142.28;4154716;28;20726;-49
2022/03/09 00:22:47;;;;;;;13.67;11.80;;;;;;;-0.63;56.15;99142.44;4131028;28;20210;-49
2022/03/09 00:24:49;;;;;;;14.77;12.90;;;;;;;-0.72;56.05;99146.13;4138239;28;20225;-49
2022/03/09 00:26:50;;;;;;;13.50;12.30;;;;;;;-0.73;56.28;99147.16;4156317;28;20196;-49
2022/03/09 00:28:52;;;;;;;12.80;11.40;;;;;;;-0.80;56.44;99152.31;4124637;28;20729;-51
2022/03/09 00:30:54;;;;;;;13.53;12.33;;;;;;;-0.80;56.17;99152.31;4139390;28;20210;-49
2022/03/09 00:32:55;;;;;;;14.40;13.00;;;;;;;-0.84;56.39;99156.34;4140137;28;20233;-49
2022/03/09 00:34:57;;;;;;;13.00;11.70;;;;;;;-0.86;56.35;99157.50;4127263;28;20210;-51
2022/03/09 00:36:59;;;;;;;12.77;11.77;;;;;;;-0.88;56.30;99146.91;4155051;28;20224;-50
2022/03/09 00:39:00;;;;;;;13.10;11.80;;;;;;;-0.90;56.80;99153.44;4139807;28;20757;-51
2022/03/09 00:41:02;;;;;;;11.87;10.97;;;;;;;-0.90;57.06;99148.09;4140303;28;20289;-52
2022/03/09 00:43:04;;;;;;;12.93;11.73;;;;;;;-0.94;56.64;99155.63;4128550;28;20585;-49
2022/03/09 00:45:10;;;;;;;12.63;11.47;;;;;;;-0.94;56.81;99146.75;4138258;28;20209;-50
2022/03/09 00:47:12;;;;;;;14.70;13.30;;;;;;;-0.94;56.55;99141.38;4122987;28;20202;-49
2022/03/09 00:49:14;;;;;;;13.10;11.80;;;;;;;-0.96;56.54;99141.53;4127670;28;20261;-49
2022/03/09 00:51:16;;;;;;;13.47;12.23;;;;;;;-0.99;56.40;99149.06;4155882;28;20299;-51
2022/03/09 00:53:18;;;;;;;14.53;13.03;;;;;;;-0.98;56.64;99145.38;4127550;28;20210;-49
2022/03/09 00:55:20;;;;;;;15.50;13.97;;;;;;;-0.96;56.65;99143.34;4126442;28;20744;-50
2022/03/09 00:57:21;;;;;;;17.47;13.20;;;;;;;-0.98;56.56;99140.00;4136772;28;20709;-51
2022/03/09 00:59:23;;;;;;;14.13;12.97;;;;;;;-0.99;56.71;99143.69;4122195;28;20314;-50
2022/03/09 01:01:25;;;;;;;14.77;13.47;;;;;;;-0.99;56.81;99143.69;4120437;28;20812;-49
2022/03/09 01:03:27;;;;;;;15.80;14.27;;;;;;;-0.97;56.66;99147.06;4125613;28;20206;-49
2022/03/09 01:05:29;;;;;;;16.63;15.07;;;;;;;-1.03;57.02;99153.06;4136598;28;20255;-49
2022/03/09 01:07:30;;;;;;;14.70;13.47;;;;;;;-1.06;56.93;99139.97;4122714;28;20223;-50
2022/03/09 01:09:32;;;;;;;14.60;13.30;;;;;;;-1.10;57.21;99146.66;4122739;28;20226;-50
2022/03/09 01:11:34;;;;;;;14.70;13.50;;;;;;;-1.10;56.89;99135.94;4127664;28;20202;-49
2022/03/09 01:13:36;;;;;;;15.93;14.33;;;;;;;-1.16;56.89;99141.94;4155620;28;20223;-49
2022/03/09 01:15:38;;;;;;;14.67;13.47;;;;;;;-1.22;57.42;99134.56;4137298;28;20224;-49
2022/03/09 01:17:39;;;;;;;15.33;13.93;;;;;;;-1.23;57.06;99135.53;4127798;28;20226;-49
2022/03/09 01:19:41;;;;;;;16.97;15.30;;;;;;;-1.26;57.26;99141.25;4112500;28;20230;-50
2022/03/09 01:21:43;;;;;;;16.67;14.60;;;;;;;-1.28;57.48;99143.25;4118614;28;20206;-50
2022/03/09 01:23:45;;;;;;;17.20;15.60;;;;;;;-1.30;57.01;99137.19;4122054;28;20210;-49
2022/03/09 01:25:47;;;;;;;15.47;13.97;;;;;;;-1.34;57.37;99138.53;4119279;28;20753;-50
2022/03/09 01:27:48;;;;;;;15.00;13.60;;;;;;;-1.35;57.54;99136.84;4124723;28;20206;-50
2022/03/09 01:29:50;;;;;;;19.00;14.07;;;;;;;-1.36;57.71;99140.50;4126691;28;20292;-49
2022/03/09 01:31:52;;;;;;;16.23;14.70;;;;;;;-1.41;57.87;99138.31;4137235;28;20669;-49
2022/03/09 01:33:54;;;;;;;14.57;13.33;;;;;;;-1.46;57.70;99145.16;4152989;28;20212;-49
2022/03/09 01:35:55;;;;;;;14.73;13.53;;;;;;;-1.47;58.09;99138.13;4140387;28;20213;-49
2022/03/09 01:37:57;;;;;;;15.87;14.40;;;;;;;-1.50;57.81;99144.63;4120791;28;20238;-50
2022/03/09 01:39:59;;;;;;;14.43;13.03;;;;;;;-1.50;58.05;99138.41;4122107;28;20206;-49
2022/03/09 01:42:00;;;;;;;20.00;14.37;;;;;;;-1.56;58.17;99134.53;4126742;28;20256;-50
2022/03/09 01:44:12;;;;;;;16.77;14.73;;;;;;;-1.50;57.74;99135.72;4139610;28;20585;-49
2022/03/09 01:46:17;;;;;;;13.57;12.47;;;;;;;-1.52;58.07;99133.22;4155253;28;20238;-51
2022/03/09 01:48:19;;;;;;;13.43;12.23;;;;;;;-1.54;57.82;99137.06;4125598;28;20880;-49
2022/03/09 01:50:21;;;;;;;14.47;13.07;;;;;;;-1.56;57.98;99133.69;4129778;28;20213;-49
2022/03/09 01:52:24;;;;;;;14.07;12.80;;;;;;;-1.55;58.00;99140.75;4122129;28;20357;-51
2022/03/09 01:54:30;;;;;;;13.57;11.77;;;;;;;-1.59;58.36;99142.06;4121427;28;20941;-49
2022/03/09 01:56:33;;;;;;;12.67;11.13;;;;;;;-1.60;58.23;99137.69;4127656;28;20237;-50
2022/03/09 01:58:34;;;;;;;11.10;10.10;;;;;;;-1.64;57.96;99137.19;4119811;28;20232;-50
2022/03/09 02:00:36;;;;;;;12.90;11.43;;;;;;;-1.65;58.08;99134.66;4139027;28;20244;-49
2022/03/09 02:02:38;;;;;;;12.83;11.57;;;;;;;-1.67;58.23;99136.66;4123876;28;20205;-51
2022/03/09 02:04:40;;;;;;;13.27;12.07;;;;;;;-1.65;57.97;99131.97;4126455;28;20253;-50
2022/03/09 02:06:43;;;;;;;12.53;11.53;;;;;;;-1.69;58.72;99136.81;4126682;28;20217;-52
2022/03/09 02:11:05;;;;;;;11.20;10.10;;;;;;;-1.66;58.48;99132.97;4139125;28;20206;-49
2022/03/09 02:13:08;;;;;;;12.40;10.67;;;;;;;-1.71;58.32;99127.22;4146670;28;20260;-49
2022/03/09 02:15:10;;;;;;;11.30;10.40;;;;;;;-1.71;58.18;99129.91;4154189;28;20212;-53
2022/03/09 02:17:18;;;;;;;13.37;10.93;;;;;;;-1.73;58.65;99137.28;4122739;28;20217;-49
2022/03/09 02:19:20;;;;;;;11.60;10.30;;;;;;;-1.70;58.48;99143.16;4138534;28;20304;-49
2022/03/09 02:21:23;;;;;;;13.70;12.47;;;;;;;-1.74;58.41;99143.66;4136433;28;20205;-49
2022/03/09 02:23:25;;;;;;;11.60;10.50;;;;;;;-1.76;58.21;99145.63;4119926;28;20202;-50
2022/03/09 02:25:26;;;;;;;13.33;11.07;;;;;;;-1.72;58.46;99141.66;4109110;28;20221;-52
2022/03/09 02:27:28;;;;;;;12.57;11.40;;;;;;;-1.75;58.34;99134.75;4123657;28;20206;-49
2022/03/09 02:29:30;;;;;;;12.73;11.63;;;;;;;-1.78;58.17;99142.28;4122027;28;20320;-49
2022/03/09 02:31:32;;;;;;;13.67;12.57;;;;;;;-1.80;58.03;99144.28;4153408;28;20202;-49
2022/03/09 02:33:34;;;;;;;18.37;12.10;;;;;;;-1.85;58.40;99141.22;4126550;28;20678;-51
2022/03/09 02:35:35;;;;;;;11.20;10.20;;;;;;;-1.86;58.67;99148.44;4126351;28;20215;-51
2022/03/09 02:37:38;;;;;;;12.60;11.33;;;;;;;-1.86;58.50;99144.91;4124808;28;20313;-50
2022/03/09 02:39:42;;;;;;;13.57;12.27;;;;;;;-1.90;58.72;99146.19;4152683;28;20331;-51
2022/03/09 02:41:44;;;;;;;12.53;11.43;;;;;;;-1.94;58.74;99150.22;4136080;28;20597;-51
2022/03/09 02:43:45;;;;;;;12.40;11.40;;;;;;;-1.97;59.12;99143.31;4125824;28;20604;-49
2022/03/09 02:45:47;;;;;;;12.10;11.00;;;;;;;-1.99;59.08;99149.84;4126048;28;20288;-49
2022/03/09 02:47:49;;;;;;;12.87;10.83;;;;;;;-2.05;59.05;99155.81;4123714;28;20276;-49
2022/03/09 02:49:51;;;;;;;11.33;10.40;;;;;;;-2.09;59.10;99149.06;4140603;28;20716;-50
2022/03/09 02:51:52;;;;;;;12.67;11.67;;;;;;;-2.08;58.96;99153.47;4125817;28;20577;-51
2022/03/09 02:53:54;;;;;;;12.17;11.17;;;;;;;-2.10;58.87;99156.28;4154912;28;20205;-52
2022/03/09 02:55:56;;;;;;;13.07;11.43;;;;;;;-2.12;59.04;99150.25;4140374;28;20197;-49
2022/03/09 02:58:01;;;;;;;11.33;10.23;;;;;;;-2.13;59.33;99155.75;4125843;28;20897;-50
2022/03/09 03:00:04;;;;;;;12.00;11.10;;;;;;;-2.10;59.37;99155.44;4126183;28;20286;-49
2022/03/09 03:02:05;;;;;;;11.07;9.97;;;;;;;-2.15;59.38;99155.06;4111562;28;20214;-50
2022/03/09 03:04:07;;;;;;;11.03;10.03;;;;;;;-2.17;58.82;99151.69;4143466;28;20205;-49
2022/03/09 03:06:10;;;;;;;11.77;10.77;;;;;;;-2.19;59.40;99146.50;4142247;28;20206;-50
2022/03/09 03:08:13;;;;;;;12.20;11.17;;;;;;;-2.24;59.88;99134.53;4128608;28;20986;-49
2022/03/09 03:10:14;;;;;;;10.33;9.43;;;;;;;-1.96;59.21;99136.09;4155512;28;20644;-50
2022/03/09 03:12:19;;;;;;;11.27;10.17;;;;;;;-1.99;59.26;99141.78;4127178;28;20415;-49
2022/03/09 03:14:21;;;;;;;14.83;10.70;;;;;;;-1.95;58.83;99137.81;4130880;28;20207;-51
2022/03/09 03:16:22;;;;;;;11.67;10.67;;;;;;;-2.04;59.07;99133.38;4110608;28;20311;-49
2022/03/09 03:18:24;;;;;;;11.43;10.33;;;;;;;-2.06;59.04;99136.22;4154560;28;20233;-48
2022/03/09 03:20:26;;;;;;;10.57;9.70;;;;;;;-2.11;59.49;99138.53;4132608;28;20560;-52
2022/03/09 03:22:27;;;;;;;10.20;9.30;;;;;;;-2.17;59.32;99135.59;4124183;28;20224;-49
2022/03/09 03:24:30;;;;;;;10.20;9.23;;;;;;;-2.19;59.36;99140.28;4128748;28;20261;-50
2022/03/09 03:26:32;;;;;;;11.63;10.63;;;;;;;-2.23;59.04;99133.53;4124160;28;20675;-53
2022/03/09 03:28:34;;;;;;;10.43;9.43;;;;;;;-2.25;59.43;99132.88;4125098;28;20253;-49
2022/03/09 03:30:35;;;;;;;11.13;10.07;;;;;;;-2.26;59.58;99128.50;4156208;28;20205;-51
2022/03/09 03:32:37;;;;;;;10.03;8.73;;;;;;;-2.30;59.49;99140.53;4137423;28;20555;-49
2022/03/09 03:34:39;;;;;;;12.70;8.30;;;;;;;-2.33;59.84;99138.16;4155148;28;20208;-50
2022/03/09 03:36:41;;;;;;;9.67;8.87;;;;;;;-2.32;59.52;99132.66;4130211;28;20220;-50
2022/03/09 03:38:43;;;;;;;10.67;9.60;;;;;;;-2.35;60.06;99132.13;4124458;28;20249;-49
2022/03/09 03:40:45;;;;;;;12.00;10.97;;;;;;;-2.41;59.83;99130.06;4137591;28;20208;-49
2022/03/09 03:42:46;;;;;;;12.60;8.47;;;;;;;-2.40;59.86;99129.06;4141304;28;20210;-49
2022/03/09 03:44:49;;;;;;;9.93;9.13;;;;;;;-2.47;60.19;99126.13;4154748;28;20258;-52
2022/03/09 03:46:51;;;;;;;10.03;9.23;;;;;;;-2.44;60.25;99119.63;4127100;28;20209;-49
2022/03/09 03:48:53;;;;;;;10.67;9.70;;;;;;;-2.46;59.67;99127.84;4142776;28;20296;-49
2022/03/09 03:50:54;;;;;;;12.83;9.70;;;;;;;-2.44;59.91;99125.00;4140598;28;20216;-49
2022/03/09 03:52:56;;;;;;;10.80;9.47;;;;;;;-2.43;59.94;99137.38;4142825;28;20209;-49
2022/03/09 03:54:58;;;;;;;9.47;8.67;;;;;;;-2.43;60.17;99137.38;4156161;28;20594;-49
2022/03/09 03:57:00;;;;;;;10.83;9.93;;;;;;;-2.43;60.15;99126.66;4128935;28;20896;-49
2022/03/09 03:59:01;;;;;;;9.63;8.73;;;;;;;-2.44;59.59;99133.03;4140687;28;20239;-50
2022/03/09 04:01:03;;;;;;;9.70;8.73;;;;;;;-2.49;60.04;99121.91;4139292;28;20260;-50
2022/03/09 04:03:05;;;;;;;10.50;9.10;;;;;;;-2.54;59.91;99118.88;4127931;28;20209;-50
2022/03/09 04:05:08;;;;;;;10.43;9.37;;;;;;;-2.54;60.27;99124.25;4129100;28;20656;-50
2022/03/09 04:07:09;;;;;;;9.63;8.73;;;;;;;-2.56;60.19;99128.88;4126717;28;20273;-49
2022/03/09 04:09:11;;;;;;;10.13;9.13;;;;;;;-2.60;59.90;99128.34;4155551;28;20225;-50
2022/03/09 04:11:12;;;;;;;9.83;9.10;;;;;;;-2.64;60.20;99129.69;4123842;28;20600;-49
2022/03/09 04:13:14;;;;;;;10.93;9.87;;;;;;;-2.68;60.14;99128.28;4124655;28;20202;-49
2022/03/09 04:15:16;;;;;;;12.90;11.73;;;;;;;-2.70;60.05;99134.78;4156615;28;20607;-49
2022/03/09 04:17:17;;;;;;;11.90;9.47;;;;;;;-2.70;60.52;99129.44;4122229;28;21001;-49
2022/03/09 04:19:19;;;;;;;10.03;9.13;;;;;;;-2.70;60.42;99134.78;4142229;28;20247;-50
2022/03/09 04:21:21;;;;;;;10.77;9.87;;;;;;;-2.73;60.31;99141.28;4123931;28;20628;-53
2022/03/09 04:23:23;;;;;;;9.50;8.70;;;;;;;-2.72;59.99;99136.78;4127959;28;20269;-49
2022/03/09 04:25:26;;;;;;;9.00;8.30;;;;;;;-2.74;60.04;99144.13;4126270;28;20678;-49
2022/03/09 04:27:28;;;;;;;10.93;9.93;;;;;;;-2.79;60.82;99141.06;4154469;28;20209;-50
2022/03/09 04:29:30;;;;;;;9.47;8.57;;;;;;;-2.84;60.65;99137.97;4127302;28;20230;-51
2022/03/09 04:31:31;;;;;;;10.53;9.63;;;;;;;-2.86;60.83;99140.81;4126564;28;20261;-50
2022/03/09 04:33:33;;;;;;;10.70;9.87;;;;;;;-2.89;60.88;99141.13;4143624;28;20205;-50
2022/03/09 04:35:35;;;;;;;11.57;10.53;;;;;;;-2.93;60.77;99138.91;4156703;28;20657;-49
2022/03/09 04:37:37;;;;;;;10.83;9.97;;;;;;;-2.96;60.67;99149.88;4120280;28;20255;-52
2022/03/09 04:39:39;;;;;;;11.10;9.87;;;;;;;-2.96;61.03;99140.03;4154749;28;20232;-49
2022/03/09 04:41:40;;;;;;;10.27;9.40;;;;;;;-2.95;60.91;99141.72;4123513;28;20297;-49
2022/03/09 04:43:44;;;;;;;11.60;10.70;;;;;;;-2.95;60.98;99151.59;4153019;28;20763;-52
2022/03/09 04:45:46;;;;;;;10.53;9.60;;;;;;;-2.98;61.11;99146.53;4126462;28;20206;-49
2022/03/09 04:47:48;;;;;;;11.20;9.63;;;;;;;-3.02;61.12;99151.34;4137768;28;20933;-50
2022/03/09 04:49:51;;;;;;;11.83;10.47;;;;;;;-3.05;61.29;99150.78;4152675;28;20231;-49
2022/03/09 04:51:52;;;;;;;11.37;10.37;;;;;;;-3.11;61.29;99152.25;4136049;28;20237;-49
2022/03/09 04:53:54;;;;;;;12.60;10.53;;;;;;;-3.10;61.29;99142.38;4107534;28;20251;-50
2022/03/09 04:55:56;;;;;;;11.43;10.43;;;;;;;-3.13;61.35;99153.38;4137436;28;20254;-49
2022/03/09 04:57:58;;;;;;;11.67;10.53;;;;;;;-3.14;61.32;99151.69;4136993;28;20206;-51
2022/03/09 04:59:59;;;;;;;10.73;9.43;;;;;;;-3.15;61.14;99155.38;4128053;28;20292;-49
2022/03/09 05:02:04;;;;;;;10.70;9.80;;;;;;;-3.17;61.43;99158.19;4154888;28;20212;-51
2022/03/09 05:04:05;;;;;;;11.73;10.73;;;;;;;-3.19;61.34;99156.66;4126795;28;20222;-50
2022/03/09 05:06:07;;;;;;;11.07;10.17;;;;;;;-3.23;61.42;99149.91;4108142;28;20211;-51
2022/03/09 05:08:10;;;;;;;10.53;9.53;;;;;;;-3.26;61.62;99152.88;4139418;28;20235;-49
2022/03/09 05:10:11;;;;;;;11.27;10.37;;;;;;;-3.28;62.00;99152.19;4120864;28;20284;-48
2022/03/09 05:12:13;;;;;;;12.57;11.53;;;;;;;-3.36;61.70;99157.41;4119682;28;20206;-49
2022/03/09 05:14:15;;;;;;;10.30;9.40;;;;;;;-3.34;61.71;99150.94;4123172;28;20207;-50
2022/03/09 05:16:16;;;;;;;12.47;11.23;;;;;;;-3.36;61.41;99154.75;4156299;28;20348;-49
2022/03/09 05:18:18;;;;;;;11.67;10.50;;;;;;;-3.44;61.69;99160.00;4155417;28;20243;-49
2022/03/09 05:20:20;;;;;;;10.60;9.63;;;;;;;-3.38;61.57;99159.41;4121592;28;20294;-48
2022/03/09 05:22:22;;;;;;;11.13;10.13;;;;;;;-3.41;61.62;99167.75;4156066;28;20221;-49
2022/03/09 05:24:26;;;;;;;10.10;9.20;;;;;;;-3.42;61.73;99158.88;4140556;28;20199;-48
2022/03/09 05:26:27;;;;;;;17.90;9.50;;;;;;;-3.33;61.83;99165.16;4142783;28;20213;-49
2022/03/09 05:28:29;;;;;;;10.80;9.70;;;;;;;-3.33;61.63;99170.53;4119658;28;20644;-51
2022/03/09 05:30:31;;;;;;;14.67;10.63;;;;;;;-3.37;62.00;99171.78;4127729;28;20206;-48
2022/03/09 05:32:33;;;;;;;11.60;10.60;;;;;;;-3.43;62.03;99172.38;4127278;28;20600;-49
2022/03/09 05:34:35;;;;;;;10.70;9.80;;;;;;;-3.45;61.80;99179.72;4153505;28;20240;-49
2022/03/09 05:36:36;;;;;;;11.93;10.47;;;;;;;-3.45;61.90;99172.53;4120963;28;20202;-50
2022/03/09 05:38:38;;;;;;;11.10;9.77;;;;;;;-3.50;62.03;99176.63;4137885;28;20279;-49
2022/03/09 05:40:41;;;;;;;14.27;12.73;;;;;;;-3.51;62.39;99172.28;4155287;28;20205;-48
2022/03/09 05:42:43;;;;;;;11.40;9.47;;;;;;;-3.52;62.24;99182.13;4136187;28;20216;-49
2022/03/09 05:44:49;;;;;;;11.30;10.13;;;;;;;-3.54;62.00;99175.25;4125626;28;20272;-50
2022/03/09 05:47:11;;;;;;;11.50;10.57;;;;;;;-3.50;62.20;99181.97;4129276;28;20288;-51
2022/03/09 05:49:12;;;;;;;10.93;9.93;;;;;;;-3.49;61.83;99183.66;4141332;28;20222;-49
2022/03/09 05:51:14;;;;;;;11.13;10.00;;;;;;;-3.43;62.26;99188.41;4138180;28;20202;-48
2022/03/09 05:53:18;;;;;;;11.87;10.40;;;;;;;-3.44;62.08;99190.28;4122837;28;20244;-48
2022/03/09 05:55:20;;;;;;;11.17;10.00;;;;;;;-3.43;62.08;99196.44;4121923;28;21207;-51
2022/03/09 05:57:22;;;;;;;11.83;10.70;;;;;;;-3.45;62.03;99201.97;4153656;28;20699;-49
2022/03/09 05:59:23;;;;;;;12.13;11.13;;;;;;;-3.49;62.04;99194.34;4138373;28;20627;-50
2022/03/09 06:01:25;;;;;;;10.00;9.20;;;;;;;-3.50;62.21;99200.69;4140235;28;20216;-50
2022/03/09 06:03:27;;;;;;;17.17;10.90;;;;;;;-3.50;61.93;99196.19;4137507;28;20260;-50
2022/03/09 06:05:29;;;;;;;11.13;10.17;;;;;;;-3.47;62.02;99192.41;4122628;28;20817;-50
2022/03/09 06:07:32;;;;;;;10.77;9.87;;;;;;;-3.46;62.07;99202.09;4126656;28;20206;-50
2022/03/09 06:09:34;;;;;;;11.53;10.53;;;;;;;-3.45;61.78;99204.63;4107508;28;21210;-50
2022/03/09 06:11:35;;;;;;;9.47;8.70;;;;;;;-3.45;61.64;99209.13;4138774;28;20209;-50
2022/03/09 06:13:37;;;;;;;11.27;10.20;;;;;;;-3.55;62.53;99202.97;4155004;28;20239;-49
2022/03/09 06:15:39;;;;;;;15.70;9.47;;;;;;;-3.57;62.31;99207.59;4122074;28;20405;-49
2022/03/09 06:17:48;;;;;;;9.60;8.73;;;;;;;-3.59;62.41;99222.97;4125642;28;20297;-50
2022/03/09 06:19:49;;;;;;;11.83;10.93;;;;;;;-3.59;62.59;99214.94;4160881;28;20291;-49
2022/03/09 06:21:51;;;;;;;9.40;8.67;;;;;;;-3.60;62.77;99219.44;4155620;28;21069;-50
2022/03/09 06:23:53;;;;;;;10.47;9.67;;;;;;;-3.58;62.43;99222.81;4129068;28;20756;-49
2022/03/09 06:25:54;;;;;;;12.53;9.93;;;;;;;-3.62;62.78;99223.22;4141647;28;20201;-51
2022/03/09 06:27:56;;;;;;;12.67;11.47;;;;;;;-3.63;62.64;99225.09;4139143;28;20276;-48
2022/03/09 06:30:01;;;;;;;11.53;9.27;;;;;;;-3.63;62.81;99225.09;4131487;28;20206;-50
2022/03/09 06:32:04;;;;;;;11.40;10.23;;;;;;;-3.63;62.91;99224.22;4126616;28;20224;-51
2022/03/09 06:34:05;;;;;;;10.40;9.60;;;;;;;-3.62;62.82;99236.59;4125612;28;20210;-49
2022/03/09 06:36:08;;;;;;;16.20;10.07;;;;;;;-3.58;62.54;99238.88;4154983;28;20310;-52
2022/03/09 06:38:11;;;;;;;11.60;10.70;;;;;;;-3.53;62.58;99246.47;4125921;28;20218;-49
2022/03/09 06:40:12;;;;;;;10.27;9.37;;;;;;;-3.51;62.80;99249.81;4124959;28;20226;-50
2022/03/09 06:42:14;;;;;;;14.17;11.10;;;;;;;-3.50;62.39;99230.09;4129154;28;20210;-52
2022/03/09 06:44:17;;;;;;;10.80;9.90;;;;;;;-3.45;62.80;99252.78;4130258;28;20214;-50
2022/03/09 06:46:19;;;;;;;10.90;9.97;;;;;;;-3.43;62.62;99242.75;4160583;28;20627;-49
2022/03/09 06:48:20;;;;;;;17.93;10.40;;;;;;;-3.38;62.50;99239.66;4122856;28;20238;-49
2022/03/09 06:50:22;;;;;;;14.17;10.10;;;;;;;-3.33;62.54;99245.41;4117447;28;20233;-49
2022/03/09 06:52:24;;;;;;;10.67;9.30;;;;;;;-3.28;62.67;99240.47;4127609;28;20872;-50
2022/03/09 06:54:25;;;;;;;12.37;11.37;;;;;;;-2.81;63.42;99240.25;4156465;28;20236;-50
2022/03/09 06:56:27;;;;;;;13.97;10.73;;;;;;;-1.70;63.52;99238.88;4124083;28;20273;-49
2022/03/09 06:58:29;;;;;;;11.53;10.53;;;;;;;-1.14;60.84;99236.59;4124082;28;20226;-49
2022/03/09 07:00:31;;;;;;;11.67;10.27;;;;;;;-0.87;59.60;99233.72;4122800;28;20230;-49
2022/03/09 07:02:33;;;;;;;11.73;10.20;;;;;;;-0.06;58.65;99247.25;4125668;28;20621;-49
2022/03/09 07:04:35;;;;;;;10.63;9.63;;;;;;;0.03;57.21;99252.50;4110688;28;20206;-50
2022/03/09 07:06:37;;;;;;;10.83;9.93;;;;;;;-0.07;56.05;99246.41;4142726;28;20248;-48
2022/03/09 07:08:39;;;;;;;11.13;10.23;;;;;;;-0.34;56.45;99248.50;4158166;28;20253;-49
2022/03/09 07:10:41;;;;;;;12.93;11.63;;;;;;;-0.49;56.68;99249.34;4140700;28;20638;-49
2022/03/09 07:12:45;;;;;;;12.30;11.30;;;;;;;-0.79;57.18;99242.66;4125500;28;20678;-49
2022/03/09 07:14:47;;;;;;;17.27;11.40;;;;;;;-1.08;57.34;99252.91;4132545;28;20209;-49
2022/03/09 07:16:49;;;;;;;14.23;12.43;;;;;;;-1.26;57.91;99248.59;4129846;28;20638;-49
2022/03/09 07:18:51;;;;;;;12.53;11.40;;;;;;;-1.40;58.68;99257.22;4142955;28;20230;-49
2022/03/09 07:20:53;;;;;;;17.37;10.50;;;;;;;-1.51;59.06;99249.41;4131666;28;20233;-49
2022/03/09 07:22:55;;;;;;;12.13;10.93;;;;;;;-1.62;59.62;99257.75;4115011;28;20257;-49
2022/03/09 07:24:57;;;;;;;11.30;10.30;;;;;;;-1.62;59.63;99266.59;4113646;28;20203;-50
2022/03/09 07:26:59;;;;;;;11.80;10.70;;;;;;;-1.32;59.72;99271.56;4113290;28;20723;-48
2022/03/09 07:29:01;;;;;;;11.43;10.33;;;;;;;-0.36;59.52;99272.03;4105820;28;20258;-49
2022/03/09 07:31:03;;;;;;;15.07;12.83;;;;;;;0.80;57.65;99279.75;4110225;28;20210;-48
2022/03/09 07:33:05;;;;;;;13.00;12.00;;;;;;;1.72;56.18;99277.28;4109632;28;20231;-49
2022/03/09 07:35:09;;;;;;;11.03;10.07;;;;;;;2.17;55.88;99278.22;4109284;28;20199;-48
2022/03/09 07:37:10;;;;;;;12.20;11.17;;;;;;;3.64;52.75;99279.22;4140034;28;20214;-49
2022/03/09 07:39:12;;;;;;;14.13;11.60;;;;;;;2.65;51.90;99272.47;4105233;28;20227;-50
2022/03/09 07:41:15;;;;;;;12.17;11.03;;;;;;;3.68;51.57;99279.66;4106360;28;20303;-48
2022/03/09 07:43:17;;;;;;;13.37;11.97;;;;;;;3.37;50.82;99271.75;4109262;28;20211;-49
2022/03/09 07:45:19;;;;;;;11.60;10.60;;;;;;;2.68;51.67;99277.50;4123629;28;20233;-49
2022/03/09 07:47:21;;;;;;;11.70;10.70;;;;;;;2.80;51.70;99273.34;4124616;28;20287;-49
2022/03/09 07:49:24;;;;;;;11.23;10.13;;;;;;;3.53;50.83;99274.25;4140861;28;20232;-49
2022/03/09 07:51:26;;;;;;;11.67;10.67;;;;;;;3.73;50.97;99282.66;4141424;28;20202;-49
2022/03/09 07:53:28;;;;;;;12.83;10.43;;;;;;;3.62;48.94;99281.28;4149725;28;20213;-49
2022/03/09 07:55:31;;;;;;;9.53;8.73;;;;;;;3.46;49.55;99281.44;4153278;28;20239;-49
2022/03/09 07:57:33;;;;;;;16.20;11.07;;;;;;;5.08;49.10;99285.13;4168447;28;20220;-48
2022/03/09 07:59:35;;;;;;;10.65;8.38;;;;;;;6.49;46.09;99277.16;4140860;28;20276;-48
2022/03/09 08:01:41;;;;;;;12.13;11.02;;;;;;;5.89;47.10;99285.31;4143882;28;20600;-49
2022/03/09 08:03:44;;;;;;;9.77;8.57;;;;;;;5.75;47.87;99287.06;4131852;28;20214;-49
2022/03/09 08:05:46;;;;;;;10.90;9.90;;;;;;;7.06;44.42;99283.72;4120851;28;20202;-49
2022/03/09 08:07:48;;;;;;;9.73;8.77;;;;;;;7.63;43.24;99289.31;4136043;28;20644;-49
2022/03/09 08:09:50;;;;;;;9.73;8.93;;;;;;;8.00;43.15;99290.47;4142764;28;20380;-49
2022/03/09 08:11:52;;;;;;;10.32;9.52;;;;;;;8.19;43.31;99289.56;4140378;28;20213;-49
2022/03/09 08:13:54;;;;;;;9.68;8.88;;;;;;;8.20;42.55;99291.28;4155495;28;20680;-49
2022/03/09 08:15:56;;;;;;;10.15;9.15;;;;;;;7.49;43.22;99298.56;4136627;28;20202;-49
2022/03/09 08:17:58;;;;;;;10.40;9.40;;;;;;;7.22;42.98;99290.63;4138434;28;20669;-49
2022/03/09 08:20:00;;;;;;;11.43;9.65;;;;;;;7.36;44.20;99293.13;4158020;28;20747;-49
2022/03/09 08:22:02;;;;;;;13.00;10.68;;;;;;;6.47;44.60;99292.81;4131641;28;20417;-49
2022/03/09 08:24:06;;;;;;;9.75;8.88;;;;;;;8.04;43.82;99291.72;4147053;28;20295;-49
2022/03/09 08:26:08;;;;;;;10.07;8.98;;;;;;;8.24;42.45;99298.81;4158824;28;20208;-49
2022/03/09 08:28:10;;;;;;;8.93;7.75;;;;;;;8.70;42.50;99293.94;4137442;28;20287;-49
2022/03/09 08:30:12;;;;;;;9.68;8.77;;;;;;;9.17;41.54;99295.31;4157724;28;20676;-49
2022/03/09 08:32:14;;;;;;;10.85;9.95;;;;;;;8.71;40.52;99289.34;4166197;28;20585;-50
2022/03/09 08:34:16;;;;;;;9.55;8.65;;;;;;;9.24;40.75;99296.09;4155722;28;20255;-49
2022/03/09 08:36:18;;;;;;;12.20;9.57;;;;;;;9.28;39.92;99300.06;4152319;28;20205;-49
2022/03/09 08:38:20;;;;;;;10.55;9.15;;;;;;;8.98;39.14;99294.41;4154745;28;20229;-49
2022/03/09 08:40:22;;;;;;;11.00;9.95;;;;;;;7.64;41.71;99292.88;4139962;28;20288;-49
2022/03/09 08:42:24;;;;;;;22.80;13.18;;;;;;;8.88;39.94;99301.41;4140444;28;20217;-49
2022/03/09 08:44:26;;;;;;;16.70;11.63;;;;;;;9.10;40.61;99291.78;4156067;28;20240;-49
2022/03/09 08:46:33;;;;;;;14.27;11.93;;;;;;;9.78;39.16;99288.03;4134936;28;20263;-49
2022/03/09 08:48:35;;;;;;;13.68;10.55;;;;;;;10.00;38.85;99291.97;4155040;28;20264;-50
2022/03/09 08:50:37;;;;;;;12.73;10.73;;;;;;;10.56;39.15;99287.13;4135521;28;20221;-49
2022/03/09 08:52:42;;;;;;;11.35;10.35;;;;;;;10.99;38.03;99278.47;4132203;28;20292;-49
2022/03/09 08:54:44;;;;;;;11.98;10.90;;;;;;;11.18;37.67;99282.78;4123748;28;20289;-49
2022/03/09 08:56:45;;;;;;;10.68;9.57;;;;;;;10.40;38.33;99279.53;4137936;28;20201;-49
2022/03/09 08:58:47;;;;;;;11.57;8.88;;;;;;;11.15;37.72;99288.75;4141683;28;20225;-49
2022/03/09 09:00:50;;;;;;;9.95;8.63;;;;;;;9.69;38.14;99284.72;4156567;28;20604;-50
2022/03/09 09:02:52;;;;;;;10.45;9.45;;;;;;;10.78;38.12;99280.91;4146172;28;20237;-49
2022/03/09 09:04:55;;;;;;;10.38;9.02;;;;;;;10.24;38.43;99288.38;4136933;28;20883;-49
2022/03/09 09:06:58;;;;;;;9.88;8.85;;;;;;;10.43;38.64;99290.88;4121410;28;20325;-49
2022/03/09 09:09:00;;;;;;;11.52;8.77;;;;;;;10.51;37.50;99289.69;4158943;28;20584;-49
2022/03/09 09:11:01;;;;;;;10.40;8.15;;;;;;;11.24;36.77;99292.81;4140210;28;20680;-49
2022/03/09 09:13:03;;;;;;;8.85;8.02;;;;;;;10.94;37.18;99288.44;4140304;28;20611;-49
2022/03/09 09:15:06;;;;;;;9.63;8.93;;;;;;;11.43;37.30;99291.66;4131703;28;20276;-49
2022/03/09 09:17:08;;;;;;;11.65;8.07;;;;;;;11.38;36.65;99288.78;4157237;28;20212;-49
2022/03/09 09:19:31;;;;;;;8.98;8.18;;;;;;;11.59;37.28;99299.22;4142228;28;20764;-49
2022/03/09 09:21:33;;;;;;;9.80;8.40;;;;;;;11.83;36.58;99298.13;4141383;28;20251;-49
2022/03/09 09:23:36;;;;;;;9.80;8.73;;;;;;;12.33;35.99;99299.28;4141822;28;20214;-49
2022/03/09 09:25:39;;;;;;;8.80;8.10;;;;;;;12.37;35.76;99294.97;4140042;28;20272;-49
2022/03/09 09:27:40;;;;;;;10.70;8.85;;;;;;;11.90;36.23;99304.34;4137073;28;20210;-49